Time;durP1;ratioP1;P1;durP2;ratioP2;P2;SDS_P1;SDS_P2;PMS_P1;PMS_P2;Temp;Humidity;BMP_temperature;BMP_pressure;BME280_temperature;BME280_humidity;BME280_pressure;Samples;Min_cycle;Max_cycle;Signal;HPM_P1;HPM_P2
2021/01/19 00:02:19;;;;;;;17.30;11.10;;;;;;;-6.81;71.32;95227.31;5003920;28;20524;-74
2021/01/19 00:04:44;;;;;;;16.45;11.43;;;;;;;-6.66;70.52;95231.72;4993158;28;20026;-74
2021/01/19 00:07:10;;;;;;;15.82;10.90;;;;;;;-6.59;69.94;95220.53;4974738;28;20517;-73
2021/01/19 00:09:35;;;;;;;16.02;11.07;;;;;;;-6.83;70.33;95182.94;5024111;28;20546;-73
2021/01/19 00:12:00;;;;;;;14.70;10.82;;;;;;;-6.49;70.03;95219.28;5008351;28;20032;-74
2021/01/19 00:14:26;;;;;;;15.45;9.98;;;;;;;-6.54;70.20;95225.38;5024013;28;20406;-75
2021/01/19 00:16:51;;;;;;;16.45;10.07;;;;;;;-6.52;69.91;95221.13;5019002;28;20092;-75
2021/01/19 00:19:17;;;;;;;13.68;9.20;;;;;;;-6.49;69.67;95224.31;5005636;28;20026;-74
2021/01/19 00:21:42;;;;;;;12.93;10.40;;;;;;;-6.35;69.43;95222.91;5006981;28;20489;-75
2021/01/19 00:24:08;;;;;;;15.02;10.40;;;;;;;-6.39;69.52;95221.44;4988198;28;20037;-74
2021/01/19 00:26:33;;;;;;;12.32;9.35;;;;;;;-6.46;69.92;95211.59;4988957;28;20060;-75
2021/01/19 00:28:59;;;;;;;14.05;9.15;;;;;;;-6.39;69.78;95219.72;5004908;28;20488;-75
2021/01/19 00:31:24;;;;;;;13.75;10.60;;;;;;;-6.45;69.79;95212.41;5023298;28;20042;-75
2021/01/19 00:33:50;;;;;;;12.93;10.05;;;;;;;-6.43;69.55;95210.66;5008737;28;20108;-75
2021/01/19 00:36:15;;;;;;;17.65;10.93;;;;;;;-6.68;70.59;95217.56;5006667;28;20017;-75
2021/01/19 00:38:41;;;;;;;15.13;11.13;;;;;;;-6.64;70.25;95197.25;4994249;28;20096;-75
2021/01/19 00:41:06;;;;;;;13.85;10.90;;;;;;;-6.53;70.14;95216.94;4987934;28;20038;-75
2021/01/19 00:43:31;;;;;;;12.95;10.27;;;;;;;-6.59;70.28;95214.69;4988616;28;20026;-75
2021/01/19 00:45:57;;;;;;;15.98;11.70;;;;;;;-6.38;70.38;95226.38;5006178;28;20482;-75
2021/01/19 00:48:22;;;;;;;17.98;12.10;;;;;;;-6.51;70.55;95225.25;5013789;28;20044;-73
2021/01/19 00:50:48;;;;;;;19.35;12.55;;;;;;;-6.56;70.63;95225.44;4988350;28;20049;-74
2021/01/19 00:53:13;;;;;;;17.67;13.50;;;;;;;-6.59;71.09;95240.69;4971839;28;20026;-75
2021/01/19 00:55:39;;;;;;;20.85;14.68;;;;;;;-6.85;71.65;95204.84;5005338;28;20034;-75
2021/01/19 00:58:04;;;;;;;22.50;13.95;;;;;;;-6.75;71.96;95234.63;4982378;28;20065;-75
2021/01/19 01:00:30;;;;;;;17.58;13.15;;;;;;;-6.69;71.71;95236.88;5018839;28;20034;-74
2021/01/19 01:02:55;;;;;;;17.40;13.00;;;;;;;-6.75;71.46;95231.28;5003983;28;20034;-74
2021/01/19 01:05:21;;;;;;;19.02;13.15;;;;;;;-6.85;71.50;95224.97;5006158;28;20037;-75
2021/01/19 01:07:46;;;;;;;20.20;13.15;;;;;;;-6.70;71.42;95239.47;5010120;28;20465;-75
2021/01/19 01:10:13;;;;;;;19.80;13.38;;;;;;;-6.69;71.44;95231.03;5023270;28;20037;-74
2021/01/19 01:12:45;;;;;;;26.00;17.25;;;;;;;-6.85;71.30;95195.59;5010930;28;20068;-75
2021/01/19 01:15:11;;;;;;;25.20;17.30;;;;;;;-6.75;71.99;95223.72;5019552;28;20021;-74
2021/01/19 01:17:40;;;;;;;25.05;15.77;;;;;;;-6.83;71.46;95223.19;5004967;28;20111;-74
2021/01/19 01:20:09;;;;;;;28.27;18.10;;;;;;;-6.90;72.22;95230.19;5018277;28;20512;-74
2021/01/19 01:22:42;;;;;;;30.38;19.63;;;;;;;-6.95;72.49;95239.63;5008950;28;20030;-74
2021/01/19 01:25:11;;;;;;;33.00;21.15;;;;;;;-7.10;73.10;95220.91;5009688;28;20144;-74
2021/01/19 01:27:37;;;;;;;26.33;17.17;;;;;;;-6.99;72.43;95221.31;4975355;28;20054;-74
2021/01/19 01:30:03;;;;;;;26.42;16.95;;;;;;;-6.99;72.07;95206.22;4979125;28;20053;-74
2021/01/19 01:32:29;;;;;;;25.63;16.88;;;;;;;-6.88;71.94;95225.91;5009492;28;20033;-74
2021/01/19 01:34:54;;;;;;;22.20;14.50;;;;;;;-7.17;72.48;95188.50;5029334;28;20014;-74
2021/01/19 01:37:19;;;;;;;23.75;14.38;;;;;;;-7.11;73.19;95206.69;5009231;28;20029;-74
2021/01/19 01:39:45;;;;;;;19.40;13.57;;;;;;;-7.07;72.93;95215.75;5010909;28;20472;-74
2021/01/19 01:42:24;;;;;;;20.42;14.48;;;;;;;-7.13;72.76;95215.19;5027136;28;20099;-74
2021/01/19 01:44:50;;;;;;;25.42;15.07;;;;;;;-7.21;73.09;95195.34;5006973;28;20033;-75
2021/01/19 01:47:25;;;;;;;25.25;15.18;;;;;;;-7.21;72.98;95207.91;4987250;28;20029;-75
2021/01/19 01:49:51;;;;;;;20.95;14.35;;;;;;;-7.21;72.87;95207.09;4990399;28;20037;-74
2021/01/19 01:52:17;;;;;;;22.95;14.60;;;;;;;-7.30;73.09;95205.75;5008538;28;20096;-75
2021/01/19 01:54:42;;;;;;;22.52;14.38;;;;;;;-7.26;73.32;95211.50;5010424;28;20034;-74
2021/01/19 01:57:08;;;;;;;21.85;15.02;;;;;;;-7.29;73.45;95211.63;5011752;28;20101;-75
2021/01/19 01:59:33;;;;;;;22.40;14.82;;;;;;;-7.33;73.62;95213.44;5007617;28;20029;-74
2021/01/19 02:02:11;;;;;;;22.38;14.63;;;;;;;-7.26;73.47;95211.50;5005662;28;20427;-75
2021/01/19 02:04:37;;;;;;;23.20;14.60;;;;;;;-7.33;73.89;95205.06;4991822;28;20026;-74
2021/01/19 02:07:05;;;;;;;27.02;16.48;;;;;;;-7.22;73.28;95216.34;4990051;28;20446;-75
2021/01/19 02:09:33;;;;;;;27.38;17.45;;;;;;;-7.12;73.28;95216.78;4986514;28;20083;-74
2021/01/19 02:12:03;;;;;;;25.95;16.45;;;;;;;-7.36;73.75;95208.50;5010060;28;20112;-74
2021/01/19 02:14:29;;;;;;;21.40;14.90;;;;;;;-7.22;73.81;95218.84;5011076;28;20564;-74
2021/01/19 02:17:19;;;;;;;20.35;14.43;;;;;;;-7.31;74.46;95220.91;5013098;28;20049;-74
2021/01/19 02:20:05;;;;;;;23.38;14.75;;;;;;;-7.29;74.27;95217.47;5006792;28;20025;-74
2021/01/19 02:22:49;;;;;;;22.33;14.57;;;;;;;-7.16;73.84;95211.06;4991122;28;20080;-74
2021/01/19 02:25:30;;;;;;;21.45;13.07;;;;;;;-6.94;74.06;95213.59;4999001;28;20029;-75
2021/01/19 02:28:33;;;;;;;29.77;16.20;;;;;;;-6.88;73.59;95202.44;5027643;28;20109;-75
2021/01/19 02:31:05;;;;;;;23.75;14.80;;;;;;;-6.77;73.33;95206.16;5023341;28;20103;-74
2021/01/19 02:33:51;;;;;;;27.60;15.45;;;;;;;-6.75;73.77;95198.56;5027367;28;20021;-74
2021/01/19 02:36:52;;;;;;;25.50;16.40;;;;;;;-6.77;73.82;95197.78;5010168;28;20060;-74
2021/01/19 02:39:35;;;;;;;23.35;15.23;;;;;;;-6.66;73.37;95195.66;5007616;28;20435;-74
2021/01/19 02:42:04;;;;;;;24.40;15.80;;;;;;;-6.78;73.46;95171.00;4974336;28;20030;-74
2021/01/19 02:44:30;;;;;;;21.47;15.23;;;;;;;-6.61;72.92;95192.06;5007764;28;20026;-74
2021/01/19 02:46:59;;;;;;;23.42;14.85;;;;;;;-6.59;73.28;95194.53;4991520;28;20036;-75
2021/01/19 02:49:24;;;;;;;18.98;14.73;;;;;;;-6.57;73.16;95200.31;5025267;28;20042;-74
2021/01/19 02:51:50;;;;;;;19.67;14.43;;;;;;;-6.58;73.41;95196.97;4990547;28;20455;-74
2021/01/19 02:54:16;;;;;;;23.00;15.98;;;;;;;-6.50;73.00;95179.06;4988651;28;20075;-74
2021/01/19 02:56:53;;;;;;;22.13;14.82;;;;;;;-6.41;72.60;95202.16;4993479;28;20037;-74
2021/01/19 02:59:38;;;;;;;24.55;14.60;;;;;;;-6.62;73.66;95207.25;5024450;28;20501;-75
2021/01/19 03:02:11;;;;;;;21.42;14.77;;;;;;;-6.58;72.89;95196.97;5025617;28;20030;-75
2021/01/19 03:04:37;;;;;;;24.60;15.70;;;;;;;-6.50;73.06;95197.50;5009447;28;20036;-74
2021/01/19 03:07:05;;;;;;;25.85;16.48;;;;;;;-6.51;72.92;95216.00;5008849;28;20144;-74
2021/01/19 03:09:31;;;;;;;31.52;18.60;;;;;;;-6.60;73.47;95196.25;5040964;28;20025;-75
2021/01/19 03:11:58;;;;;;;33.78;18.48;;;;;;;-6.52;73.42;95224.41;4972848;28;20072;-74
2021/01/19 03:14:23;;;;;;;33.65;18.98;;;;;;;-6.45;73.33;95218.25;5012360;28;20049;-75
2021/01/19 03:16:49;;;;;;;45.85;22.90;;;;;;;-6.52;73.25;95214.34;5031933;28;20071;-75
2021/01/19 03:19:18;;;;;;;48.88;24.63;;;;;;;-6.61;73.22;95203.84;4990208;28;20026;-75
2021/01/19 03:21:44;;;;;;;34.53;20.38;;;;;;;-6.61;73.20;95208.88;5005876;28;20049;-75
2021/01/19 03:24:09;;;;;;;33.72;18.88;;;;;;;-6.49;73.65;95211.75;4989628;28;20381;-76
2021/01/19 03:26:35;;;;;;;28.80;17.30;;;;;;;-6.44;73.36;95203.97;5009870;28;20127;-75
2021/01/19 03:29:00;;;;;;;24.92;16.85;;;;;;;-6.46;73.44;95208.28;5007396;28;20029;-75
2021/01/19 03:31:26;;;;;;;30.88;24.95;;;;;;;-6.45;73.55;95217.44;5025535;28;20045;-75
2021/01/19 03:33:51;;;;;;;23.98;16.35;;;;;;;-6.63;73.19;95188.00;5023789;28;20847;-75
2021/01/19 03:36:16;;;;;;;23.95;15.23;;;;;;;-6.46;73.61;95228.41;5025754;28;20030;-75
2021/01/19 03:38:42;;;;;;;21.23;14.27;;;;;;;-6.47;73.58;95216.69;5007941;28;20112;-75
2021/01/19 03:41:07;;;;;;;22.55;16.75;;;;;;;-6.49;73.47;95205.88;4988172;28;20029;-76
2021/01/19 03:43:33;;;;;;;19.67;13.85;;;;;;;-6.39;73.54;95217.22;5025636;28;20032;-75
2021/01/19 03:45:58;;;;;;;20.08;14.25;;;;;;;-6.53;73.47;95196.81;5008422;28;20022;-76
2021/01/19 03:48:24;;;;;;;18.48;14.18;;;;;;;-6.38;73.38;95233.94;5025053;28;20507;-74
2021/01/19 03:50:49;;;;;;;19.58;14.25;;;;;;;-6.33;73.58;95238.78;5025229;28;20052;-75
2021/01/19 03:53:15;;;;;;;19.08;13.00;;;;;;;-6.33;73.10;95213.63;5026637;28;20029;-75
2021/01/19 03:55:40;;;;;;;17.98;12.35;;;;;;;-6.35;72.42;95218.69;5004782;28;20120;-74
2021/01/19 03:58:06;;;;;;;16.80;11.23;;;;;;;-6.28;73.36;95232.69;5005182;28;20041;-74
2021/01/19 04:00:31;;;;;;;18.58;12.68;;;;;;;-6.27;73.11;95238.53;5010604;28;20044;-75
2021/01/19 04:02:56;;;;;;;18.33;12.77;;;;;;;-6.40;73.37;95220.59;5024736;28;20115;-74
2021/01/19 04:05:22;;;;;;;19.15;13.13;;;;;;;-6.32;73.41;95245.47;4991511;28;20025;-74
2021/01/19 04:07:47;;;;;;;21.25;13.43;;;;;;;-6.38;73.23;95235.63;5024286;28;20083;-74
2021/01/19 04:10:14;;;;;;;20.77;13.40;;;;;;;-6.38;73.06;95240.66;5016308;28;20080;-73
2021/01/19 04:12:39;;;;;;;22.10;14.20;;;;;;;-6.41;73.22;95237.41;5004176;28;20036;-74
2021/01/19 04:15:07;;;;;;;20.67;12.95;;;;;;;-6.40;73.20;95238.22;4997122;28;20017;-73
2021/01/19 04:17:33;;;;;;;18.63;13.35;;;;;;;-6.41;73.35;95242.44;5024048;28;20021;-74
2021/01/19 04:19:58;;;;;;;19.95;12.65;;;;;;;-6.49;73.13;95229.38;5025383;28;20030;-74
2021/01/19 04:22:26;;;;;;;19.42;13.18;;;;;;;-6.61;73.25;95218.94;5024086;28;20380;-74
2021/01/19 04:24:52;;;;;;;19.02;13.43;;;;;;;-6.66;73.10;95216.63;5008650;28;20474;-74
2021/01/19 04:27:18;;;;;;;17.27;12.48;;;;;;;-6.55;73.49;95246.41;5024889;28;20117;-74
2021/01/19 04:29:44;;;;;;;18.52;13.40;;;;;;;-6.61;73.53;95241.59;5021694;28;20120;-74
2021/01/19 04:32:09;;;;;;;21.10;14.00;;;;;;;-6.71;73.59;95237.84;5005760;28;20705;-74
2021/01/19 04:34:35;;;;;;;22.50;14.98;;;;;;;-6.65;73.44;95252.69;5005825;28;20056;-74
2021/01/19 04:37:00;;;;;;;19.63;13.27;;;;;;;-6.77;73.79;95235.53;5025039;28;20029;-74
2021/01/19 04:39:25;;;;;;;24.70;14.15;;;;;;;-6.70;73.52;95247.81;4975158;28;20045;-74
2021/01/19 04:41:51;;;;;;;22.70;13.60;;;;;;;-6.73;73.56;95245.44;5021251;28;20030;-75
2021/01/19 04:44:16;;;;;;;28.95;16.48;;;;;;;-6.80;73.65;95248.25;5005699;28;20463;-74
2021/01/19 04:46:43;;;;;;;39.53;20.85;;;;;;;-7.02;73.79;95230.66;5009428;28;20037;-75
2021/01/19 04:49:09;;;;;;;44.60;22.17;;;;;;;-7.03;74.25;95257.50;5010036;28;20109;-74
2021/01/19 04:51:34;;;;;;;30.10;18.15;;;;;;;-7.12;74.64;95265.41;5021492;28;20052;-75
2021/01/19 04:54:00;;;;;;;28.70;17.38;;;;;;;-7.19;75.13;95270.75;4993334;28;20033;-74
2021/01/19 04:56:27;;;;;;;24.77;15.18;;;;;;;-7.41;75.13;95238.03;5007821;28;20103;-74
2021/01/19 04:58:54;;;;;;;28.08;13.90;;;;;;;-7.15;74.91;95273.06;4983459;28;20042;-74
2021/01/19 05:01:49;;;;;;;24.63;14.80;;;;;;;-7.30;74.44;95246.00;5015041;28;20041;-74
2021/01/19 05:04:27;;;;;;;24.98;15.23;;;;;;;-7.19;74.98;95280.81;5027080;28;20026;-74
2021/01/19 05:07:20;;;;;;;29.98;17.63;;;;;;;-7.25;75.10;95276.81;5030266;28;20117;-74
2021/01/19 05:10:24;;;;;;;30.73;17.05;;;;;;;-7.26;75.39;95279.38;5022973;28;20034;-74
2021/01/19 05:12:51;;;;;;;23.58;14.90;;;;;;;-7.33;75.66;95278.78;5008854;28;20037;-74
2021/01/19 05:15:16;;;;;;;26.13;15.88;;;;;;;-7.38;75.96;95275.63;5001322;28;20502;-74
2021/01/19 05:17:42;;;;;;;24.85;15.88;;;;;;;-7.53;76.29;95269.47;5017122;28;20034;-74
2021/01/19 05:20:10;;;;;;;24.48;16.25;;;;;;;-7.52;76.34;95283.69;5009230;28;20048;-74
2021/01/19 05:22:36;;;;;;;28.10;15.73;;;;;;;-7.65;76.53;95276.63;5021547;28;20441;-74
2021/01/19 05:25:01;;;;;;;22.27;15.43;;;;;;;-7.69;76.81;95272.56;5021751;28;20030;-74
2021/01/19 05:27:27;;;;;;;22.40;13.90;;;;;;;-7.62;76.41;95284.88;4992018;28;20030;-74
2021/01/19 05:30:07;;;;;;;28.63;14.77;;;;;;;-7.63;76.59;95280.72;5007331;28;20511;-74
2021/01/19 05:32:40;;;;;;;30.50;16.88;;;;;;;-8.04;76.18;95219.38;5008619;28;20026;-74
2021/01/19 05:35:14;;;;;;;35.80;18.45;;;;;;;-7.68;76.65;95281.75;5007924;28;20443;-74
2021/01/19 05:37:42;;;;;;;32.72;19.00;;;;;;;-7.75;76.16;95270.28;5008118;28;20026;-74
2021/01/19 05:40:08;;;;;;;36.60;20.00;;;;;;;-7.76;75.99;95286.22;4998192;28;20091;-75
2021/01/19 05:42:33;;;;;;;38.05;21.30;;;;;;;-7.92;76.56;95283.44;5028540;28;20033;-74
2021/01/19 05:45:06;;;;;;;25.98;15.88;;;;;;;-8.09;77.52;95291.53;5022380;28;20029;-74
2021/01/19 05:47:33;;;;;;;22.20;14.40;;;;;;;-8.28;77.59;95260.41;5008243;28;20786;-75
2021/01/19 05:49:59;;;;;;;19.30;13.32;;;;;;;-8.23;77.67;95273.63;5003604;28;20036;-75
2021/01/19 05:52:29;;;;;;;25.70;14.30;;;;;;;-8.16;77.43;95295.16;5007511;28;20442;-75
2021/01/19 05:54:55;;;;;;;22.42;13.60;;;;;;;-8.14;77.29;95303.44;5028319;28;20021;-75
2021/01/19 05:57:21;;;;;;;20.85;14.10;;;;;;;-8.07;77.11;95299.84;5014960;28;20499;-75
2021/01/19 05:59:51;;;;;;;32.08;17.25;;;;;;;-8.19;77.07;95294.44;5012765;28;20022;-76
2021/01/19 06:02:17;;;;;;;24.13;14.70;;;;;;;-8.14;76.64;95293.41;5011736;28;20041;-73
2021/01/19 06:04:50;;;;;;;22.00;13.77;;;;;;;-8.21;76.92;95301.16;5022291;28;20062;-74
2021/01/19 06:07:19;;;;;;;28.45;15.30;;;;;;;-8.33;77.35;95304.94;5024248;28;20028;-74
2021/01/19 06:09:46;;;;;;;22.73;14.32;;;;;;;-8.22;77.54;95305.38;5006612;28;20026;-75
2021/01/19 06:12:11;;;;;;;19.55;13.75;;;;;;;-8.24;77.68;95304.63;5008019;28;20068;-75
2021/01/19 06:14:38;;;;;;;28.10;16.88;;;;;;;-8.05;76.65;95308.16;4991324;28;20044;-75
2021/01/19 06:17:23;;;;;;;26.05;16.38;;;;;;;-7.82;76.35;95309.88;4990737;28;20045;-75
2021/01/19 06:19:50;;;;;;;41.08;22.77;;;;;;;-7.83;75.94;95303.22;5007576;28;20038;-75
2021/01/19 06:22:25;;;;;;;49.78;25.20;;;;;;;-7.81;75.62;95300.66;5006321;28;20483;-75
2021/01/19 06:24:55;;;;;;;63.85;33.50;;;;;;;-7.54;76.13;95300.50;5027623;28;20026;-75
2021/01/19 06:27:20;;;;;;;75.78;25.90;;;;;;;-7.19;74.08;95316.00;5008760;28;20025;-75
2021/01/19 06:29:46;;;;;;;36.25;18.98;;;;;;;-6.82;73.10;95310.41;5025724;28;20059;-75
2021/01/19 06:32:13;;;;;;;22.70;13.93;;;;;;;-6.54;71.75;95316.00;5010367;28;20037;-75
2021/01/19 06:34:39;;;;;;;26.17;16.83;;;;;;;-6.26;70.13;95303.16;5008201;28;20457;-75
2021/01/19 06:37:06;;;;;;;27.33;17.65;;;;;;;-5.97;69.49;95312.84;4981949;28;20029;-75
2021/01/19 06:39:39;;;;;;;20.80;13.60;;;;;;;-4.93;65.60;95308.22;5008976;28;20036;-74
2021/01/19 06:42:15;;;;;;;20.88;13.25;;;;;;;-3.85;62.28;95303.88;5019826;28;20061;-74
2021/01/19 06:44:45;;;;;;;17.00;12.10;;;;;;;-4.40;62.84;95305.72;5001678;28;20021;-75
2021/01/19 06:47:11;;;;;;;18.10;12.15;;;;;;;-4.78;64.20;95276.41;5023249;28;20036;-75
2021/01/19 06:49:38;;;;;;;21.20;12.38;;;;;;;-4.32;62.51;95277.56;4995376;28;20034;-74
2021/01/19 06:52:05;;;;;;;19.83;12.50;;;;;;;-3.91;62.25;95316.00;4999872;28;20426;-75
2021/01/19 06:54:46;;;;;;;17.80;12.23;;;;;;;-3.07;59.86;95317.59;5027169;28;20029;-75
2021/01/19 06:57:32;;;;;;;16.58;12.63;;;;;;;-2.47;58.27;95304.19;5025869;28;20033;-75
2021/01/19 07:00:10;;;;;;;17.63;13.88;;;;;;;-2.45;55.85;95299.03;5005678;28;20061;-75
2021/01/19 07:02:39;;;;;;;18.15;13.07;;;;;;;-2.10;56.43;95302.97;5006751;28;20042;-75
2021/01/19 07:05:14;;;;;;;17.73;12.95;;;;;;;-2.42;58.03;95306.47;5005840;28;20033;-75
2021/01/19 07:08:04;;;;;;;17.77;13.20;;;;;;;-2.52;59.19;95316.31;5000581;28;20414;-75
2021/01/19 07:10:48;;;;;;;18.92;12.65;;;;;;;-2.56;59.47;95319.91;5024425;28;20026;-74
2021/01/19 07:13:23;;;;;;;21.65;13.32;;;;;;;-2.26;57.97;95313.16;5024980;28;20124;-75
2021/01/19 07:15:57;;;;;;;21.73;16.17;;;;;;;-1.85;56.80;95320.16;5009506;28;20116;-75
2021/01/19 07:18:42;;;;;;;27.63;19.90;;;;;;;-1.43;55.69;95319.41;5023621;28;20573;-75
2021/01/19 07:21:15;;;;;;;21.17;16.95;;;;;;;-1.26;54.25;95304.81;5023269;28;20407;-75
2021/01/19 07:26:18;;;;;;;19.05;14.73;;;;;;;-1.64;55.20;95313.84;5007212;28;20081;-75
2021/01/19 07:28:44;;;;;;;14.23;11.77;;;;;;;-1.70;55.09;95293.88;4975031;28;20455;-74
2021/01/19 07:31:14;;;;;;;15.02;11.98;;;;;;;-1.83;55.44;95300.59;5007594;28;20064;-75
2021/01/19 07:33:41;;;;;;;17.88;12.80;;;;;;;-1.79;55.07;95310.47;5026554;28;20028;-75
2021/01/19 07:36:06;;;;;;;27.20;16.63;;;;;;;-2.05;55.01;95306.06;5007991;28;20041;-75
2021/01/19 07:38:32;;;;;;;21.52;12.70;;;;;;;-1.60;55.44;95328.00;4992942;28;20041;-74
2021/01/19 07:40:58;;;;;;;55.00;25.73;;;;;;;-0.89;53.80;95331.34;5011125;28;20033;-74
2021/01/19 07:43:24;;;;;;;67.32;32.58;;;;;;;-1.30;53.41;95325.38;5005872;28;20052;-74
2021/01/19 07:45:51;;;;;;;77.80;37.63;;;;;;;-1.30;54.12;95320.31;4987362;28;20030;-74
2021/01/19 07:48:16;;;;;;;36.80;16.52;;;;;;;-1.45;56.28;95331.38;5007445;28;20034;-74
2021/01/19 07:50:45;;;;;;;13.38;10.43;;;;;;;-1.79;56.27;95330.75;5024411;28;20041;-75
2021/01/19 07:53:11;;;;;;;14.75;11.00;;;;;;;-2.13;57.77;95336.13;4987673;28;20487;-75
2021/01/19 07:55:44;;;;;;;15.88;11.02;;;;;;;-2.30;57.95;95341.28;5001219;28;20570;-75
2021/01/19 07:58:21;;;;;;;16.52;12.35;;;;;;;-2.48;58.55;95337.22;5024155;28;20072;-75
2021/01/19 08:00:47;;;;;;;16.17;10.73;;;;;;;-2.37;58.32;95329.84;5011924;28;20049;-75
2021/01/19 08:03:13;;;;;;;17.92;11.32;;;;;;;-2.23;58.03;95343.41;4992884;28;20541;-74
2021/01/19 08:05:38;;;;;;;19.15;12.65;;;;;;;-2.39;58.21;95341.78;4998707;28;20061;-75
2021/01/19 08:08:14;;;;;;;18.00;13.23;;;;;;;-2.38;59.05;95318.09;4999079;28;20450;-75
2021/01/19 08:10:39;;;;;;;16.83;12.18;;;;;;;-2.30;58.37;95301.53;5004996;28;20030;-75
2021/01/19 08:13:18;;;;;;;15.85;11.40;;;;;;;-1.56;57.27;95332.00;4990492;28;20048;-75
2021/01/19 08:16:07;;;;;;;15.30;11.10;;;;;;;-1.60;56.86;95341.50;4985200;28;20034;-74
2021/01/19 08:18:40;;;;;;;12.45;10.43;;;;;;;-1.83;56.40;95323.44;5017478;28;20045;-74
2021/01/19 08:21:06;;;;;;;15.32;11.15;;;;;;;-1.70;57.22;95368.31;4990565;28;20037;-74
2021/01/19 08:23:33;;;;;;;16.33;10.70;;;;;;;-1.24;57.28;95369.03;5018472;28;20058;-74
2021/01/19 08:26:06;;;;;;;16.75;11.55;;;;;;;0.50;52.32;95363.22;4989594;28;20399;-75
2021/01/19 08:28:32;;;;;;;14.82;10.82;;;;;;;1.03;52.29;95356.28;4977364;28;20157;-74
2021/01/19 08:30:58;;;;;;;14.07;10.60;;;;;;;1.89;50.73;95363.03;5023629;28;20084;-74
2021/01/19 08:33:24;;;;;;;15.02;10.30;;;;;;;-0.31;51.96;95360.84;5000385;28;20033;-75
2021/01/19 08:35:50;;;;;;;14.80;12.20;;;;;;;-0.76;55.11;95361.94;4984641;28;20045;-74
2021/01/19 08:38:15;;;;;;;14.57;12.18;;;;;;;-1.09;56.17;95357.13;5000458;28;20024;-74
2021/01/19 08:40:41;;;;;;;16.50;11.77;;;;;;;-1.89;58.46;95336.44;4994809;28;20033;-74
2021/01/19 08:43:07;;;;;;;14.15;11.15;;;;;;;-1.49;58.51;95365.44;5019316;28;20017;-75
2021/01/19 08:45:40;;;;;;;19.13;12.75;;;;;;;-2.57;59.26;95333.50;5011109;28;20522;-75
2021/01/19 08:48:07;;;;;;;24.85;16.38;;;;;;;-2.75;62.14;95380.06;4977357;28;20477;-75
2021/01/19 08:50:35;;;;;;;15.68;11.73;;;;;;;-2.00;60.15;95372.56;5010917;28;20042;-75
2021/01/19 08:53:11;;;;;;;15.60;11.77;;;;;;;-2.10;60.10;95381.59;4998130;28;20117;-74
2021/01/19 08:55:36;;;;;;;17.05;11.30;;;;;;;-1.96;60.69;95384.19;4984786;28;20033;-74
2021/01/19 08:58:02;;;;;;;20.08;11.93;;;;;;;-2.44;59.90;95364.06;5039183;28;20032;-74
2021/01/19 09:00:33;;;;;;;21.10;13.35;;;;;;;-2.26;61.71;95383.34;4987650;28;20500;-75
2021/01/19 09:02:59;;;;;;;14.75;11.68;;;;;;;-2.26;61.11;95384.16;5004001;28;20029;-75
2021/01/19 09:05:30;;;;;;;22.42;12.15;;;;;;;-2.24;60.83;95379.81;5008174;28;20120;-74
2021/01/19 09:07:57;;;;;;;21.15;14.25;;;;;;;-3.28;62.12;95344.84;5024536;28;20042;-74
2021/01/19 09:10:26;;;;;;;18.38;14.00;;;;;;;-2.85;61.54;95358.63;5002886;28;20125;-74
2021/01/19 09:12:52;;;;;;;20.52;14.50;;;;;;;-2.52;61.21;95371.25;5005583;28;20067;-75
2021/01/19 09:15:17;;;;;;;25.02;13.68;;;;;;;-2.44;61.60;95362.31;5011713;28;20445;-74
2021/01/19 09:18:13;;;;;;;18.27;12.80;;;;;;;-2.63;61.38;95336.31;5015723;28;20063;-74
2021/01/19 09:20:39;;;;;;;18.63;12.18;;;;;;;-2.48;61.43;95352.44;5017393;28;20609;-74
2021/01/19 09:23:17;;;;;;;16.08;11.98;;;;;;;-2.30;60.91;95364.94;5040272;28;20026;-74
2021/01/19 09:25:47;;;;;;;21.45;13.35;;;;;;;-2.41;61.56;95363.88;4985618;28;20100;-74
2021/01/19 09:28:13;;;;;;;18.80;13.02;;;;;;;-2.50;61.35;95341.53;5005684;28;20048;-74
2021/01/19 09:30:39;;;;;;;18.70;12.77;;;;;;;-2.44;61.08;95371.66;5010182;28;20046;-74
2021/01/19 09:33:08;;;;;;;23.95;13.48;;;;;;;-2.38;62.07;95363.72;5012163;28;20120;-74
2021/01/19 09:35:34;;;;;;;21.95;14.15;;;;;;;-2.61;62.17;95380.16;5006279;28;20045;-75
2021/01/19 09:38:00;;;;;;;21.67;14.07;;;;;;;-2.68;63.15;95358.56;5015010;28;20030;-75
2021/01/19 09:40:32;;;;;;;22.50;14.50;;;;;;;-2.52;62.29;95377.13;5004982;28;20037;-75
2021/01/19 09:42:58;;;;;;;25.00;15.95;;;;;;;-2.78;63.39;95370.91;5008618;28;20022;-75
2021/01/19 09:45:24;;;;;;;30.15;17.45;;;;;;;-2.82;62.95;95364.34;4998395;28;20033;-75
2021/01/19 09:47:49;;;;;;;33.20;17.05;;;;;;;-2.70;63.18;95378.13;5014608;28;20041;-75
2021/01/19 09:50:15;;;;;;;40.67;24.13;;;;;;;-2.62;63.12;95370.09;4999832;28;20495;-78
2021/01/19 09:52:44;;;;;;;27.23;17.23;;;;;;;-2.52;63.00;95368.69;5001585;28;20521;-76
2021/01/19 09:55:11;;;;;;;25.00;14.40;;;;;;;-2.82;63.41;95349.16;4995470;28;20057;-75
2021/01/19 09:57:37;;;;;;;24.33;14.85;;;;;;;-2.51;63.32;95355.13;4993837;28;20044;-75
2021/01/19 10:00:05;;;;;;;17.58;13.02;;;;;;;-2.22;62.17;95349.31;5011182;28;20091;-76
2021/01/19 10:02:30;;;;;;;24.10;14.18;;;;;;;-2.15;62.25;95343.78;5024897;28;20038;-75
2021/01/19 10:05:00;;;;;;;25.83;14.73;;;;;;;-2.37;62.65;95324.78;5039188;28;20028;-75
2021/01/19 10:07:27;;;;;;;26.65;16.40;;;;;;;-2.20;62.77;95328.03;5026192;28;20036;-76
2021/01/19 10:09:53;;;;;;;38.25;19.98;;;;;;;-2.19;61.64;95351.69;5011004;28;20038;-72
2021/01/19 10:12:18;;;;;;;38.13;24.08;;;;;;;-2.24;62.73;95356.97;5025289;28;20041;-75
2021/01/19 10:14:44;;;;;;;34.05;19.85;;;;;;;-2.21;62.96;95350.91;5009313;28;20038;-80
2021/01/19 10:17:09;;;;;;;29.05;17.35;;;;;;;-2.27;63.23;95347.00;5011998;28;20026;-78
2021/01/19 10:19:36;;;;;;;29.33;18.08;;;;;;;-2.45;63.10;95329.47;5038901;28;20034;-79
2021/01/19 10:22:05;;;;;;;38.40;21.35;;;;;;;-2.28;62.84;95329.38;5015119;28;20039;-80
2021/01/19 10:24:31;;;;;;;34.35;19.45;;;;;;;-1.93;62.72;95335.00;5020474;28;20026;-81
2021/01/19 10:27:07;;;;;;;29.63;16.15;;;;;;;-1.85;62.26;95337.91;5014099;28;20033;-81
2021/01/19 10:29:36;;;;;;;24.08;15.82;;;;;;;-1.84;62.67;95345.44;5036551;28;20044;-83
2021/01/19 10:32:05;;;;;;;20.52;14.88;;;;;;;-1.77;61.29;95334.06;5038332;28;20049;-84
2021/01/19 10:34:31;;;;;;;23.52;14.30;;;;;;;-2.57;62.41;95318.28;5023238;28;20044;-84
2021/01/19 10:36:57;;;;;;;23.77;15.23;;;;;;;-2.31;63.20;95324.47;5047495;28;20005;-84
2021/01/19 10:39:22;;;;;;;24.10;15.93;;;;;;;-2.00;62.33;95332.00;5037674;28;20040;-84
2021/01/19 10:41:49;;;;;;;29.80;18.00;;;;;;;-2.54;63.22;95297.84;5041245;28;20018;-84
2021/01/19 10:44:15;;;;;;;26.52;17.83;;;;;;;-2.19;63.38;95290.81;5020781;28;20021;-82
2021/01/19 10:46:40;;;;;;;33.15;19.98;;;;;;;-1.86;62.86;95311.72;5027974;28;20026;-84
2021/01/19 10:49:07;;;;;;;33.10;20.35;;;;;;;-1.86;62.70;95310.94;5024659;28;20029;-85
2021/01/19 10:51:33;;;;;;;45.60;26.48;;;;;;;-1.81;62.68;95307.22;5005925;28;20037;-85
2021/01/19 10:54:10;;;;;;;26.67;17.67;;;;;;;-1.64;62.01;95314.66;5006419;28;20017;-86
2021/01/19 10:56:37;;;;;;;24.90;16.55;;;;;;;-1.69;63.07;95311.56;4975854;28;20106;-83
2021/01/19 10:59:03;;;;;;;25.00;15.40;;;;;;;-1.72;63.27;95313.47;5032351;28;20040;-83
2021/01/19 11:01:28;;;;;;;22.50;16.45;;;;;;;-1.48;62.89;95301.91;5018823;28;20030;-80
2021/01/19 11:03:54;;;;;;;22.55;14.80;;;;;;;-1.57;62.61;95288.94;5018624;28;20116;-78
2021/01/19 11:06:20;;;;;;;23.35;15.07;;;;;;;-1.55;63.64;95295.56;5014317;28;20009;-81
2021/01/19 11:08:46;;;;;;;24.58;15.50;;;;;;;-1.70;62.91;95279.47;5024757;28;20021;-80
2021/01/19 11:11:11;;;;;;;22.98;16.02;;;;;;;-2.19;64.27;95285.75;5010418;28;20593;-81
2021/01/19 11:13:38;;;;;;;26.48;15.57;;;;;;;-2.05;64.15;95282.41;5006034;28;20028;-81
2021/01/19 11:16:04;;;;;;;24.83;16.63;;;;;;;-1.89;63.98;95293.31;5021846;28;20026;-82
2021/01/19 11:18:30;;;;;;;23.10;16.88;;;;;;;-1.60;64.14;95293.28;5022659;28;20061;-82
2021/01/19 11:20:55;;;;;;;41.45;28.15;;;;;;;-1.59;63.69;95278.88;4998879;28;20025;-80
2021/01/19 11:23:21;;;;;;;18.67;13.95;;;;;;;-1.34;64.76;95279.03;5017672;28;20075;-79
2021/01/19 11:25:46;;;;;;;13.23;10.18;;;;;;;-1.22;65.57;95254.66;5068902;28;20029;-82
2021/01/19 11:28:13;;;;;;;15.05;10.07;;;;;;;-1.03;65.04;95275.50;5061427;28;20025;-82